Time;durP1;ratioP1;P1;durP2;ratioP2;P2;SDS_P1;SDS_P2;PMS_P1;PMS_P2;Temp;Humidity;BMP_temperature;BMP_pressure;BME280_temperature;BME280_humidity;BME280_pressure;Samples;Min_cycle;Max_cycle;Signal;HPM_P1;HPM_P2
2024/02/06 00:04:37;;;;;;;100.03;49.25;;;;;;;;;;10572958;28;20425;-85
2024/02/06 00:09:41;;;;;;;97.87;48.57;;;;;;;;;;10573324;28;20881;-86
2024/02/06 00:14:43;;;;;;;102.72;49.65;;;;;;;;;;10570257;28;20475;-86
2024/02/06 00:19:45;;;;;;;97.88;47.22;;;;;;;;;;10569541;28;20507;-86
2024/02/06 00:24:50;;;;;;;101.50;46.90;;;;;;;;;;10571655;28;20811;-85
2024/02/06 00:29:54;;;;;;;99.75;46.28;;;;;;;;;;10574285;28;20455;-85
2024/02/06 00:34:59;;;;;;;100.37;46.03;;;;;;;;;;10552180;28;20461;-85
2024/02/06 00:40:04;;;;;;;99.87;47.60;;;;;;;;;;10537947;28;20481;-85
2024/02/06 00:45:07;;;;;;;98.85;46.67;;;;;;;;;;10519677;28;20462;-85
2024/02/06 00:50:11;;;;;;;97.95;46.80;;;;;;;;;;10537337;28;20485;-85
2024/02/06 00:55:15;;;;;;;100.13;46.45;;;;;;;;;;10537990;28;20400;-85
2024/02/06 01:00:19;;;;;;;101.50;47.60;;;;;;;;;;10537121;28;20497;-85
2024/02/06 01:05:22;;;;;;;94.15;46.40;;;;;;;;;;10535456;28;20412;-85
2024/02/06 01:10:26;;;;;;;96.55;45.38;;;;;;;;;;10534826;28;20400;-85
2024/02/06 01:15:28;;;;;;;97.55;45.22;;;;;;;;;;10540618;28;20412;-86
2024/02/06 01:20:30;;;;;;;93.03;43.85;;;;;;;;;;10538879;28;20428;-86
2024/02/06 01:25:34;;;;;;;88.07;43.60;;;;;;;;;;10536104;28;20458;-85
2024/02/06 01:30:37;;;;;;;89.47;43.10;;;;;;;;;;10530125;28;20440;-85
2024/02/06 01:35:39;;;;;;;86.03;43.25;;;;;;;;;;10585017;22;21271;-88
2024/02/06 01:40:43;;;;;;;94.93;44.23;;;;;;;;;;10566342;27;20454;-89
2024/02/06 01:45:45;;;;;;;91.18;44.47;;;;;;;;;;10565554;27;20442;-88
2024/02/06 01:50:52;;;;;;;88.83;44.10;;;;;;;;;;10558336;28;21363;-89
2024/02/06 01:55:56;;;;;;;88.68;42.25;;;;;;;;;;10559998;28;20398;-88
2024/02/06 02:00:59;;;;;;;94.53;44.60;;;;;;;;;;10563987;28;20960;-88
2024/02/06 02:06:04;;;;;;;92.82;44.08;;;;;;;;;;10586466;27;20404;-87
2024/02/06 02:11:08;;;;;;;92.53;43.73;;;;;;;;;;10561075;27;20461;-87
2024/02/06 02:16:11;;;;;;;83.73;41.87;;;;;;;;;;10569804;27;20411;-87
2024/02/06 02:21:15;;;;;;;86.43;41.63;;;;;;;;;;10567251;27;20995;-87
2024/02/06 02:26:18;;;;;;;88.20;41.20;;;;;;;;;;10554380;28;20405;-88
2024/02/06 02:31:21;;;;;;;83.85;40.58;;;;;;;;;;10590581;28;20436;-88
2024/02/06 02:36:25;;;;;;;86.18;42.30;;;;;;;;;;10586065;27;20435;-88
2024/02/06 02:41:27;;;;;;;91.57;42.90;;;;;;;;;;10565528;27;20432;-88
2024/02/06 02:46:29;;;;;;;92.75;41.88;;;;;;;;;;10578704;28;20411;-88
2024/02/06 02:51:33;;;;;;;84.43;40.97;;;;;;;;;;10570070;27;20428;-88
2024/02/06 02:56:36;;;;;;;90.23;42.50;;;;;;;;;;10557074;28;20405;-88
2024/02/06 03:01:38;;;;;;;93.38;42.17;;;;;;;;;;10556320;27;20456;-88
2024/02/06 03:06:44;;;;;;;90.30;42.08;;;;;;;;;;10554769;27;20537;-88
2024/02/06 03:11:46;;;;;;;88.38;41.13;;;;;;;;;;10551312;28;20469;-88
2024/02/06 03:16:49;;;;;;;94.28;42.47;;;;;;;;;;10559142;28;20488;-87
2024/02/06 03:21:53;;;;;;;90.07;41.72;;;;;;;;;;10582067;27;20404;-88
2024/02/06 03:26:55;;;;;;;89.10;43.58;;;;;;;;;;10552964;27;20406;-88
2024/02/06 03:31:57;;;;;;;96.45;43.30;;;;;;;;;;10545832;28;20409;-89
2024/02/06 03:37:01;;;;;;;92.30;42.43;;;;;;;;;;10560601;27;20457;-89
2024/02/06 03:42:04;;;;;;;94.47;44.75;;;;;;;;;;10557308;28;20452;-88
2024/02/06 03:47:07;;;;;;;94.70;44.08;;;;;;;;;;10590896;28;20404;-85
2024/02/06 03:52:10;;;;;;;87.43;42.47;;;;;;;;;;10567258;28;20459;-89
2024/02/06 03:57:13;;;;;;;91.18;44.72;;;;;;;;;;10555048;27;20761;-88
2024/02/06 04:02:17;;;;;;;88.13;43.95;;;;;;;;;;10578821;28;20418;-88
2024/02/06 04:07:21;;;;;;;93.00;44.03;;;;;;;;;;10567591;28;20958;-87
2024/02/06 04:12:24;;;;;;;95.47;44.07;;;;;;;;;;10562657;28;20472;-88
2024/02/06 04:17:26;;;;;;;92.93;44.40;;;;;;;;;;10561502;28;20472;-87
2024/02/06 04:22:30;;;;;;;93.55;43.38;;;;;;;;;;10559813;28;20418;-88
2024/02/06 04:27:33;;;;;;;92.17;44.40;;;;;;;;;;10562592;28;20949;-88
2024/02/06 04:32:36;;;;;;;97.25;43.55;;;;;;;;;;10557607;28;20414;-88
2024/02/06 04:37:40;;;;;;;93.97;42.60;;;;;;;;;;10569491;28;20385;-87
2024/02/06 04:42:42;;;;;;;88.82;43.03;;;;;;;;;;10577175;28;20479;-90
2024/02/06 04:47:45;;;;;;;87.68;41.08;;;;;;;;;;10565199;28;20753;-88
2024/02/06 04:52:49;;;;;;;87.75;42.05;;;;;;;;;;10557197;28;20403;-87
2024/02/06 04:57:51;;;;;;;85.53;41.03;;;;;;;;;;10573768;28;20399;-88
2024/02/06 05:02:54;;;;;;;81.35;40.50;;;;;;;;;;10578166;28;20486;-88
2024/02/06 05:07:57;;;;;;;74.00;37.28;;;;;;;;;;10540248;28;20412;-87
2024/02/06 05:13:00;;;;;;;71.15;37.13;;;;;;;;;;10560898;28;20414;-87
2024/02/06 05:18:03;;;;;;;71.63;35.72;;;;;;;;;;10558426;28;20470;-88
2024/02/06 05:23:07;;;;;;;75.90;38.97;;;;;;;;;;10550784;28;20428;-88
2024/02/06 05:28:09;;;;;;;76.40;38.10;;;;;;;;;;10568978;27;20398;-88
2024/02/06 05:33:12;;;;;;;82.38;38.80;;;;;;;;;;10566989;27;20400;-87
2024/02/06 05:38:15;;;;;;;88.23;40.47;;;;;;;;;;10568856;27;20402;-87
2024/02/06 05:43:18;;;;;;;82.78;42.28;;;;;;;;;;10564195;27;20417;-85
2024/02/06 05:48:20;;;;;;;85.80;41.50;;;;;;;;;;10551416;27;20502;-89
2024/02/06 05:53:24;;;;;;;82.53;40.67;;;;;;;;;;10565783;27;20428;-89
2024/02/06 05:58:26;;;;;;;78.43;40.17;;;;;;;;;;10580129;28;20403;-91
2024/02/06 06:03:28;;;;;;;81.87;41.93;;;;;;;;;;10565703;28;20418;-91
2024/02/06 06:08:32;;;;;;;76.37;40.03;;;;;;;;;;10579607;27;20444;-91
2024/02/06 06:13:34;;;;;;;88.93;43.70;;;;;;;;;;10586603;28;20499;-92
2024/02/06 06:18:37;;;;;;;87.53;43.83;;;;;;;;;;10619251;27;21132;-90
2024/02/06 06:23:41;;;;;;;85.25;42.63;;;;;;;;;;10564190;27;20424;-91
2024/02/06 06:28:43;;;;;;;93.40;44.83;;;;;;;;;;10596662;27;20424;-91
2024/02/06 06:33:45;;;;;;;85.97;41.83;;;;;;;;;;10568564;27;20499;-89
2024/02/06 06:38:49;;;;;;;87.28;45.63;;;;;;;;;;10568218;27;20423;-89
2024/02/06 06:43:52;;;;;;;77.20;41.15;;;;;;;;;;10566276;28;20426;-89
2024/02/06 06:48:54;;;;;;;81.97;42.55;;;;;;;;;;10553461;28;21123;-89
2024/02/06 06:53:58;;;;;;;79.93;42.20;;;;;;;;;;10553666;27;20404;-90
2024/02/06 06:59:00;;;;;;;85.43;42.90;;;;;;;;;;10563951;28;20464;-89
2024/02/06 07:04:04;;;;;;;83.37;43.47;;;;;;;;;;10566317;27;20969;-90
2024/02/06 07:09:07;;;;;;;82.60;43.17;;;;;;;;;;10564351;27;20435;-89
2024/02/06 07:14:10;;;;;;;83.43;43.28;;;;;;;;;;10582532;27;20407;-88
2024/02/06 07:19:12;;;;;;;77.20;40.93;;;;;;;;;;10571985;27;20463;-90
2024/02/06 07:24:16;;;;;;;85.88;45.10;;;;;;;;;;10560230;27;20935;-90
2024/02/06 07:29:19;;;;;;;78.03;41.97;;;;;;;;;;10573068;28;20442;-89
2024/02/06 07:34:21;;;;;;;90.07;45.67;;;;;;;;;;10575210;28;20410;-89
2024/02/06 07:39:25;;;;;;;94.90;46.65;;;;;;;;;;10554048;28;20404;-90
2024/02/06 07:44:27;;;;;;;86.35;43.28;;;;;;;;;;10575919;27;20442;-90
2024/02/06 07:49:30;;;;;;;90.00;46.20;;;;;;;;;;10562581;27;20472;-90
2024/02/06 07:54:34;;;;;;;94.57;45.63;;;;;;;;;;10562261;27;20832;-91
2024/02/06 07:59:36;;;;;;;92.03;46.97;;;;;;;;;;10558987;28;20830;-90
2024/02/06 08:04:38;;;;;;;98.72;49.75;;;;;;;;;;10547542;28;20395;-91
2024/02/06 08:09:42;;;;;;;102.82;51.08;;;;;;;;;;10563301;27;20400;-89
2024/02/06 08:14:45;;;;;;;105.97;50.67;;;;;;;;;;10562651;28;20440;-89
2024/02/06 08:19:47;;;;;;;107.85;51.97;;;;;;;;;;10575148;27;20477;-89
2024/02/06 08:24:51;;;;;;;108.60;52.37;;;;;;;;;;10562251;28;20402;-88
2024/02/06 08:29:54;;;;;;;114.65;54.22;;;;;;;;;;10566601;28;20457;-89
2024/02/06 08:34:56;;;;;;;113.82;54.75;;;;;;;;;;10558241;28;20463;-89
2024/02/06 08:40:00;;;;;;;114.88;54.08;;;;;;;;;;10557385;28;20403;-89
2024/02/06 08:45:04;;;;;;;121.15;54.35;;;;;;;;;;10593264;28;20406;-90
2024/02/06 08:50:07;;;;;;;123.90;56.40;;;;;;;;;;10563216;28;20395;-90
2024/02/06 08:55:11;;;;;;;124.60;55.40;;;;;;;;;;10571462;28;20468;-90
2024/02/06 09:00:16;;;;;;;123.78;55.35;;;;;;;;;;10580475;27;20486;-90
2024/02/06 09:05:19;;;;;;;117.15;55.05;;;;;;;;;;10568665;28;20404;-88
2024/02/06 09:10:24;;;;;;;120.93;54.92;;;;;;;;;;10582261;27;20456;-91
2024/02/06 09:15:28;;;;;;;123.75;57.40;;;;;;;;;;10566769;27;20438;-90
2024/02/06 09:20:31;;;;;;;126.45;56.85;;;;;;;;;;10580460;27;20409;-88
2024/02/06 09:25:34;;;;;;;125.43;57.60;;;;;;;;;;10572890;27;20957;-88
2024/02/06 09:30:39;;;;;;;124.40;55.45;;;;;;;;;;10554092;28;21376;-88
2024/02/06 09:35:41;;;;;;;120.85;52.33;;;;;;;;;;10566201;27;20412;-89
2024/02/06 09:40:46;;;;;;;115.65;52.17;;;;;;;;;;10553788;28;21201;-89
2024/02/06 09:45:49;;;;;;;116.88;52.78;;;;;;;;;;10574462;27;20406;-90
2024/02/06 09:50:53;;;;;;;118.60;52.97;;;;;;;;;;10571466;28;20758;-89
2024/02/06 09:55:57;;;;;;;114.13;50.78;;;;;;;;;;10580807;28;20424;-88
2024/02/06 10:01:00;;;;;;;111.80;50.33;;;;;;;;;;10587366;27;20836;-88
2024/02/06 10:06:07;;;;;;;111.90;50.57;;;;;;;;;;10568211;27;20461;-89
2024/02/06 10:11:11;;;;;;;109.13;50.83;;;;;;;;;;10570439;28;20404;-88
2024/02/06 10:16:13;;;;;;;112.88;51.70;;;;;;;;;;10559086;28;20910;-88
2024/02/06 10:21:17;;;;;;;111.95;49.97;;;;;;;;;;10556794;28;20456;-89
2024/02/06 10:26:20;;;;;;;108.50;50.53;;;;;;;;;;10559001;27;20391;-88
2024/02/06 10:31:27;;;;;;;116.70;51.97;;;;;;;;;;10553628;27;20481;-82
2024/02/06 10:36:30;;;;;;;115.97;52.03;;;;;;;;;;10573409;27;20465;-88
2024/02/06 10:41:34;;;;;;;119.68;53.63;;;;;;;;;;10568484;28;20426;-89
2024/02/06 10:46:36;;;;;;;121.73;54.47;;;;;;;;;;10563756;28;20402;-89
2024/02/06 10:51:39;;;;;;;119.78;54.63;;;;;;;;;;10542920;27;20461;-88
2024/02/06 10:56:46;;;;;;;121.80;54.33;;;;;;;;;;10563803;27;20488;-89
2024/02/06 11:01:50;;;;;;;146.35;64.57;;;;;;;;;;10561385;28;20454;-89
2024/02/06 11:06:56;;;;;;;118.53;55.38;;;;;;;;;;10554343;27;20455;-88
2024/02/06 11:12:02;;;;;;;144.13;65.93;;;;;;;;;;10577551;28;20431;-89
2024/02/06 11:17:06;;;;;;;170.50;74.25;;;;;;;;;;10573460;28;20407;-89
2024/02/06 11:22:18;;;;;;;131.32;59.13;;;;;;;;;;10558941;28;20511;-89
2024/02/06 11:27:22;;;;;;;114.82;56.42;;;;;;;;;;10569451;28;20420;-90
2024/02/06 11:32:25;;;;;;;131.57;58.90;;;;;;;;;;10562659;27;20437;-89
2024/02/06 11:37:28;;;;;;;133.20;61.70;;;;;;;;;;10553528;28;20400;-89
2024/02/06 11:42:32;;;;;;;122.37;55.37;;;;;;;;;;10556365;27;20418;-89
2024/02/06 11:47:34;;;;;;;127.38;56.55;;;;;;;;;;10563011;27;20473;-90
2024/02/06 11:52:37;;;;;;;126.60;57.13;;;;;;;;;;10562406;28;20429;-89
2024/02/06 11:57:41;;;;;;;133.02;55.80;;;;;;;;;;10556820;27;20476;-89
2024/02/06 12:02:45;;;;;;;125.33;55.07;;;;;;;;;;10549397;28;20476;-90
2024/02/06 12:07:54;;;;;;;121.40;56.13;;;;;;;;;;10551227;28;20432;-90
2024/02/06 12:13:04;;;;;;;123.60;55.20;;;;;;;;;;10559301;28;20442;-89
2024/02/06 12:18:10;;;;;;;131.25;57.97;;;;;;;;;;10566640;28;20406;-90
2024/02/06 12:23:12;;;;;;;126.40;57.03;;;;;;;;;;10568594;28;20450;-90
2024/02/06 12:28:16;;;;;;;131.33;57.43;;;;;;;;;;10604465;28;20411;-89
2024/02/06 12:33:18;;;;;;;123.32;55.08;;;;;;;;;;10562662;28;20399;-89
2024/02/06 12:38:21;;;;;;;125.10;58.23;;;;;;;;;;10565790;28;20400;-88
2024/02/06 12:43:25;;;;;;;126.97;59.75;;;;;;;;;;10589885;27;20463;-89
2024/02/06 12:48:27;;;;;;;130.57;58.13;;;;;;;;;;10560328;28;20438;-90
2024/02/06 12:53:30;;;;;;;129.70;59.08;;;;;;;;;;10579632;27;20398;-89
2024/02/06 12:58:34;;;;;;;126.40;57.88;;;;;;;;;;10566293;27;20402;-88
2024/02/06 13:03:38;;;;;;;129.13;59.08;;;;;;;;;;10571886;27;20452;-89
2024/02/06 13:08:46;;;;;;;126.95;56.65;;;;;;;;;;10564697;27;20945;-87
2024/02/06 13:13:54;;;;;;;125.32;56.13;;;;;;;;;;10564043;27;20412;-92
2024/02/06 13:18:58;;;;;;;127.45;56.65;;;;;;;;;;10570494;27;20436;-91
2024/02/06 13:24:06;;;;;;;126.50;56.95;;;;;;;;;;10573943;27;20411;-91
2024/02/06 13:29:19;;;;;;;126.82;58.17;;;;;;;;;;10585609;28;20428;-92
2024/02/06 13:34:22;;;;;;;133.40;57.90;;;;;;;;;;10592615;28;20783;-92
2024/02/06 13:39:24;;;;;;;122.05;55.85;;;;;;;;;;10607213;28;20406;-91
2024/02/06 13:44:28;;;;;;;125.63;55.60;;;;;;;;;;10596096;27;20897;-92
2024/02/06 13:49:31;;;;;;;126.97;55.80;;;;;;;;;;10579020;27;20468;-88
2024/02/06 13:54:34;;;;;;;121.17;54.40;;;;;;;;;;10593601;27;20428;-91
2024/02/06 13:59:38;;;;;;;121.45;55.50;;;;;;;;;;10578425;27;20459;-90
2024/02/06 14:04:40;;;;;;;116.22;51.72;;;;;;;;;;10582503;27;20414;-91
2024/02/06 14:09:43;;;;;;;118.63;53.70;;;;;;;;;;10587180;28;20402;-90
2024/02/06 14:14:46;;;;;;;117.07;52.28;;;;;;;;;;10595705;27;20450;-90
2024/02/06 14:19:49;;;;;;;111.50;51.10;;;;;;;;;;10580545;27;20383;-91
2024/02/06 14:24:51;;;;;;;110.63;49.92;;;;;;;;;;10584095;28;20454;-91
2024/02/06 14:29:55;;;;;;;112.97;51.50;;;;;;;;;;10582654;28;20404;-91
2024/02/06 14:34:57;;;;;;;120.13;51.65;;;;;;;;;;10586834;28;20431;-91
2024/02/06 14:40:00;;;;;;;116.00;51.83;;;;;;;;;;10582261;28;20408;-92
2024/02/06 14:45:05;;;;;;;111.63;52.05;;;;;;;;;;10590841;28;20491;-89
2024/02/06 14:50:10;;;;;;;118.95;54.25;;;;;;;;;;10586214;28;20431;-90
2024/02/06 14:55:13;;;;;;;120.63;54.58;;;;;;;;;;10609616;28;20425;-90
2024/02/06 15:00:17;;;;;;;121.28;53.92;;;;;;;;;;10595181;27;20433;-90
2024/02/06 15:05:20;;;;;;;161.48;68.10;;;;;;;;;;10580964;28;20416;-91
2024/02/06 15:10:22;;;;;;;118.50;53.90;;;;;;;;;;10600286;28;20393;-90
2024/02/06 15:15:28;;;;;;;130.48;59.42;;;;;;;;;;10582400;28;20649;-90
2024/02/06 15:20:31;;;;;;;123.25;54.80;;;;;;;;;;10578731;27;20462;-90
2024/02/06 15:25:33;;;;;;;119.73;54.13;;;;;;;;;;10591151;27;20414;-91
2024/02/06 15:30:37;;;;;;;126.22;56.10;;;;;;;;;;10579136;28;20400;-90
2024/02/06 15:35:41;;;;;;;117.90;55.20;;;;;;;;;;10562863;27;20419;-91
2024/02/06 15:40:44;;;;;;;121.32;53.45;;;;;;;;;;10569308;28;20807;-91
2024/02/06 15:45:47;;;;;;;119.32;55.83;;;;;;;;;;10563614;28;20479;-91
2024/02/06 15:50:50;;;;;;;127.17;54.77;;;;;;;;;;10563331;28;20433;-90
2024/02/06 15:55:55;;;;;;;120.15;54.10;;;;;;;;;;10565377;28;20403;-91
2024/02/06 16:00:59;;;;;;;118.60;54.60;;;;;;;;;;10565878;28;20562;-87
2024/02/06 16:06:02;;;;;;;123.35;55.13;;;;;;;;;;10563809;28;20917;-89
2024/02/06 16:11:05;;;;;;;128.07;55.33;;;;;;;;;;10584145;27;20396;-89
2024/02/06 16:16:09;;;;;;;120.32;53.10;;;;;;;;;;10556514;28;20995;-89
2024/02/06 16:21:12;;;;;;;123.43;57.10;;;;;;;;;;10555460;28;20430;-90
2024/02/06 16:26:15;;;;;;;124.87;55.17;;;;;;;;;;10561672;28;20527;-88
2024/02/06 16:31:18;;;;;;;122.60;54.93;;;;;;;;;;10558311;28;20462;-87
2024/02/06 16:36:21;;;;;;;120.28;54.17;;;;;;;;;;10563187;28;20415;-89
2024/02/06 16:41:23;;;;;;;117.35;54.00;;;;;;;;;;10539000;28;20454;-89
2024/02/06 16:46:27;;;;;;;130.43;56.67;;;;;;;;;;10549530;28;20450;-87
2024/02/06 16:51:30;;;;;;;125.03;55.37;;;;;;;;;;10555881;28;20499;-88
2024/02/06 16:56:32;;;;;;;129.77;56.17;;;;;;;;;;10553516;28;21522;-89
2024/02/06 17:01:36;;;;;;;129.65;56.67;;;;;;;;;;10555641;28;20784;-90
2024/02/06 17:06:38;;;;;;;123.43;54.97;;;;;;;;;;10555618;28;20509;-89
2024/02/06 17:11:44;;;;;;;134.90;57.77;;;;;;;;;;10553740;28;20654;-87
2024/02/06 17:16:48;;;;;;;130.73;57.22;;;;;;;;;;10556994;28;20449;-88
2024/02/06 17:21:50;;;;;;;131.20;58.55;;;;;;;;;;10565294;28;20973;-88
2024/02/06 17:26:53;;;;;;;130.93;57.50;;;;;;;;;;10570539;28;20465;-89
2024/02/06 17:31:57;;;;;;;136.38;60.72;;;;;;;;;;10560464;28;20450;-85
2024/02/06 17:36:59;;;;;;;134.80;59.65;;;;;;;;;;10548940;27;20407;-88
2024/02/06 17:42:02;;;;;;;141.23;60.95;;;;;;;;;;10565855;28;20406;-88
2024/02/06 17:47:06;;;;;;;141.85;61.70;;;;;;;;;;10564624;28;20510;-88
2024/02/06 17:52:08;;;;;;;137.70;60.65;;;;;;;;;;10548238;28;20486;-87
2024/02/06 17:57:15;;;;;;;134.23;58.60;;;;;;;;;;10560045;27;20454;-89
2024/02/06 18:02:19;;;;;;;143.00;61.58;;;;;;;;;;10562701;28;20894;-88
2024/02/06 18:07:21;;;;;;;141.88;63.67;;;;;;;;;;10559153;27;20467;-88
2024/02/06 18:12:23;;;;;;;142.15;62.15;;;;;;;;;;10551590;28;20426;-89
2024/02/06 18:17:27;;;;;;;143.95;63.65;;;;;;;;;;10554662;28;20464;-88
2024/02/06 18:22:31;;;;;;;145.25;68.43;;;;;;;;;;10548616;28;20414;-88
2024/02/06 18:27:33;;;;;;;144.82;68.20;;;;;;;;;;10552558;27;20514;-89
2024/02/06 18:32:37;;;;;;;150.90;69.65;;;;;;;;;;10553985;27;20501;-88
2024/02/06 18:37:39;;;;;;;149.32;69.07;;;;;;;;;;10566577;27;20416;-90
2024/02/06 18:42:42;;;;;;;148.18;67.30;;;;;;;;;;10556246;27;20466;-90
2024/02/06 18:47:47;;;;;;;153.43;70.18;;;;;;;;;;10556931;28;20416;-90
2024/02/06 18:52:49;;;;;;;156.77;69.45;;;;;;;;;;10570557;27;20412;-91
2024/02/06 18:57:51;;;;;;;150.25;68.57;;;;;;;;;;10555950;28;20415;-90
2024/02/06 19:02:55;;;;;;;146.90;69.07;;;;;;;;;;10540385;27;20987;-88
2024/02/06 19:07:57;;;;;;;148.50;68.43;;;;;;;;;;10550183;27;20442;-89
2024/02/06 19:13:00;;;;;;;148.67;65.30;;;;;;;;;;10555846;27;20435;-88
2024/02/06 19:18:05;;;;;;;146.80;70.85;;;;;;;;;;10552534;27;21044;-88
2024/02/06 19:23:07;;;;;;;155.77;73.97;;;;;;;;;;10542562;27;21233;-89
2024/02/06 19:28:10;;;;;;;157.65;72.65;;;;;;;;;;10546927;27;20923;-88
2024/02/06 19:33:16;;;;;;;167.23;71.40;;;;;;;;;;10545338;27;20507;-88
2024/02/06 19:38:19;;;;;;;150.25;70.07;;;;;;;;;;10544216;27;20395;-88
2024/02/06 19:43:21;;;;;;;156.77;71.95;;;;;;;;;;10553043;27;20410;-88
2024/02/06 19:48:25;;;;;;;169.98;77.57;;;;;;;;;;10551100;27;20412;-89
2024/02/06 19:53:28;;;;;;;158.65;73.07;;;;;;;;;;10566423;27;20415;-90
2024/02/06 19:58:30;;;;;;;155.63;70.75;;;;;;;;;;10561696;28;20414;-88
2024/02/06 20:03:34;;;;;;;154.98;69.05;;;;;;;;;;10576934;27;20483;-88
2024/02/06 20:08:37;;;;;;;157.90;68.93;;;;;;;;;;10552370;28;20412;-88
2024/02/06 20:13:40;;;;;;;167.07;73.90;;;;;;;;;;10547660;28;20922;-88
2024/02/06 20:18:44;;;;;;;151.52;68.53;;;;;;;;;;10543331;27;20420;-88
2024/02/06 20:23:46;;;;;;;149.00;68.10;;;;;;;;;;10546942;28;20451;-84
2024/02/06 20:28:49;;;;;;;154.82;68.28;;;;;;;;;;10543164;28;20435;-84
2024/02/06 20:33:54;;;;;;;147.70;70.93;;;;;;;;;;10551383;28;20845;-85
2024/02/06 20:38:56;;;;;;;155.77;71.80;;;;;;;;;;10547252;28;20919;-84
2024/02/06 20:43:59;;;;;;;152.73;68.47;;;;;;;;;;10549527;28;20450;-83
2024/02/06 20:49:03;;;;;;;145.85;66.30;;;;;;;;;;10550076;28;20449;-84
2024/02/06 20:54:06;;;;;;;153.13;66.33;;;;;;;;;;10548493;28;20439;-84
2024/02/06 20:59:08;;;;;;;151.88;69.00;;;;;;;;;;10551353;27;20612;-86
2024/02/06 21:04:12;;;;;;;146.50;65.90;;;;;;;;;;10548306;27;20526;-86
2024/02/06 21:09:15;;;;;;;152.77;68.10;;;;;;;;;;10551762;27;20431;-84
2024/02/06 21:14:17;;;;;;;144.05;68.55;;;;;;;;;;10550897;27;20805;-84
2024/02/06 21:19:21;;;;;;;153.27;68.17;;;;;;;;;;10554818;27;20458;-86
2024/02/06 21:24:24;;;;;;;152.75;68.63;;;;;;;;;;10540875;28;20446;-87
2024/02/06 21:29:26;;;;;;;153.82;68.20;;;;;;;;;;10535282;28;20448;-86
2024/02/06 21:34:30;;;;;;;154.75;69.85;;;;;;;;;;10545770;28;20448;-85
2024/02/06 21:39:33;;;;;;;148.77;68.80;;;;;;;;;;10547821;28;20458;-85
2024/02/06 21:44:35;;;;;;;154.38;68.53;;;;;;;;;;10546236;27;20450;-87
2024/02/06 21:49:39;;;;;;;155.15;66.60;;;;;;;;;;10545820;28;20442;-85
2024/02/06 21:54:42;;;;;;;152.27;70.88;;;;;;;;;;10553491;27;20449;-85
2024/02/06 21:59:44;;;;;;;156.43;68.20;;;;;;;;;;10553532;27;20495;-86
2024/02/06 22:04:48;;;;;;;142.23;67.80;;;;;;;;;;10540628;27;20546;-86
2024/02/06 22:09:52;;;;;;;151.65;70.40;;;;;;;;;;10543460;27;20438;-87
2024/02/06 22:14:54;;;;;;;156.63;69.00;;;;;;;;;;10544929;27;20426;-85
2024/02/06 22:19:58;;;;;;;139.70;65.33;;;;;;;;;;10547821;27;20681;-87
2024/02/06 22:25:01;;;;;;;145.67;66.77;;;;;;;;;;10547593;27;20460;-86
2024/02/06 22:30:04;;;;;;;142.33;62.47;;;;;;;;;;10554550;27;20490;-86
2024/02/06 22:35:09;;;;;;;142.55;61.67;;;;;;;;;;10554782;27;20394;-86
2024/02/06 22:40:12;;;;;;;142.10;64.25;;;;;;;;;;10561362;27;20452;-86
2024/02/06 22:45:15;;;;;;;136.73;62.58;;;;;;;;;;10560294;27;20417;-87
2024/02/06 22:50:19;;;;;;;131.75;59.03;;;;;;;;;;10557306;27;20462;-86
2024/02/06 22:55:21;;;;;;;130.67;57.40;;;;;;;;;;10559170;27;20468;-86
2024/02/06 23:00:29;;;;;;;133.20;58.93;;;;;;;;;;10557079;28;20404;-86
2024/02/06 23:05:33;;;;;;;126.60;57.78;;;;;;;;;;10567749;27;20420;-86
2024/02/06 23:10:35;;;;;;;136.07;58.90;;;;;;;;;;10556541;27;20406;-86
2024/02/06 23:15:37;;;;;;;129.20;58.67;;;;;;;;;;10564698;28;20464;-86
2024/02/06 23:20:41;;;;;;;137.55;60.95;;;;;;;;;;10554226;28;20403;-86
2024/02/06 23:25:44;;;;;;;134.43;60.95;;;;;;;;;;10555179;28;21091;-87
2024/02/06 23:30:47;;;;;;;128.15;59.05;;;;;;;;;;10562926;27;20407;-85
2024/02/06 23:35:51;;;;;;;131.00;58.60;;;;;;;;;;10551054;28;20416;-86
2024/02/06 23:40:53;;;;;;;137.88;60.42;;;;;;;;;;10557919;27;20408;-86
2024/02/06 23:45:56;;;;;;;137.40;60.97;;;;;;;;;;10563032;27;20508;-87
2024/02/06 23:50:59;;;;;;;130.57;61.00;;;;;;;;;;10554869;27;20453;-86
2024/02/06 23:56:02;;;;;;;133.95;61.65;;;;;;;;;;10560906;27;20490;-86
